Time,TemperatureF,DewpointF,PressureIn,WindDirection,WindDirectionDegrees,WindSpeedMPH,WindSpeedGustMPH,Humidity,HourlyPrecipIn,Conditions,Clouds,dailyrainin,SoftwareType,DateUTC
2013-07-14 00:04:00,54.4,42.5,29.91,SSE,162,0.0,4.0,64,0.00,,,0.00,WeatherTracker,2013-07-14 07:04:00,
2013-07-14 00:09:00,54.1,42.2,29.91,SSE,162,0.0,4.0,64,0.00,,,0.00,WeatherTracker,2013-07-14 07:09:00,
2013-07-14 00:14:00,54.1,42.2,29.91,SSE,161,0.0,2.0,64,0.00,,,0.00,WeatherTracker,2013-07-14 07:14:00,
2013-07-14 00:19:00,53.9,42.8,29.91,SSE,162,2.0,2.0,66,0.00,,,0.00,WeatherTracker,2013-07-14 07:19:00,
2013-07-14 00:24:00,53.5,42.0,29.91,SSE,162,1.0,2.0,65,0.00,,,0.00,WeatherTracker,2013-07-14 07:24:00,
2013-07-14 00:29:00,54.3,42.0,29.91,SSE,162,2.0,0.0,63,0.00,,,0.00,WeatherTracker,2013-07-14 07:29:00,
2013-07-14 00:35:00,54.1,41.8,29.91,SSE,162,3.0,5.0,63,0.00,,,0.00,WeatherTracker,2013-07-14 07:35:00,
2013-07-14 00:40:00,54.3,42.4,29.91,SSE,166,1.0,5.0,64,0.00,,,0.00,WeatherTracker,2013-07-14 07:40:00,
2013-07-14 00:45:00,53.9,42.0,29.91,SSE,165,0.0,4.0,64,0.00,,,0.00,WeatherTracker,2013-07-14 07:45:00,
2013-07-14 00:50:00,53.5,42.0,29.91,SSE,166,0.0,1.0,65,0.00,,,0.00,WeatherTracker,2013-07-14 07:50:00,
2013-07-14 00:55:00,52.8,42.1,29.91,SSE,166,0.0,3.0,67,0.00,,,0.00,WeatherTracker,2013-07-14 07:55:00,
2013-07-14 01:00:00,53.1,42.4,29.92,SSE,166,1.0,3.0,67,0.00,,,0.00,WeatherTracker,2013-07-14 08:00:00,
2013-07-14 01:05:00,51.8,42.0,29.92,SSE,166,0.0,3.0,69,0.00,,,0.00,WeatherTracker,2013-07-14 08:05:00,
2013-07-14 01:10:00,51.5,41.7,29.92,SSE,166,0.0,3.0,69,0.00,,,0.00,WeatherTracker,2013-07-14 08:10:00,
2013-07-14 01:15:00,51.7,41.1,29.92,SSE,166,0.0,2.0,67,0.00,,,0.00,WeatherTracker,2013-07-14 08:15:00,
2013-07-14 01:20:00,52.0,41.4,29.92,SSE,166,0.0,2.0,67,0.00,,,0.00,WeatherTracker,2013-07-14 08:20:00,
2013-07-14 01:25:00,52.2,42.7,29.92,SSE,165,0.0,0.0,70,0.00,,,0.00,WeatherTracker,2013-07-14 08:25:00,
2013-07-14 01:30:00,51.7,41.9,29.92,SSE,166,0.0,4.0,69,0.00,,,0.00,WeatherTracker,2013-07-14 08:30:00,
2013-07-14 01:35:00,51.3,42.2,29.92,SSE,165,0.0,4.0,71,0.00,,,0.00,WeatherTracker,2013-07-14 08:35:00,
2013-07-14 01:40:00,50.9,41.8,29.92,SSE,166,0.0,0.0,71,0.00,,,0.00,WeatherTracker,2013-07-14 08:40:00,
2013-07-14 01:45:00,50.6,41.2,29.92,SSE,166,0.0,2.0,70,0.00,,,0.00,WeatherTracker,2013-07-14 08:45:00,
2013-07-14 01:50:00,50.4,41.0,29.92,SSE,166,0.0,2.0,70,0.00,,,0.00,WeatherTracker,2013-07-14 08:50:00,
2013-07-14 01:55:00,50.1,41.4,29.92,SSE,166,0.0,0.0,72,0.00,,,0.00,WeatherTracker,2013-07-14 08:55:00,
2013-07-14 02:00:00,49.7,41.0,29.93,SSE,165,0.0,1.0,72,0.00,,,0.00,WeatherTracker,2013-07-14 09:00:00,
2013-07-14 02:05:00,49.5,40.9,29.93,SSE,166,0.0,1.0,72,0.00,,,0.00,WeatherTracker,2013-07-14 09:05:00,
2013-07-14 02:10:00,49.7,41.4,29.93,SSE,165,0.0,0.0,73,0.00,,,0.00,WeatherTracker,2013-07-14 09:10:00,
2013-07-14 02:15:00,49.2,41.3,29.93,SSE,166,0.0,0.0,74,0.00,,,0.00,WeatherTracker,2013-07-14 09:15:00,
2013-07-14 02:20:00,48.5,41.3,29.92,SSE,166,0.0,0.0,76,0.00,,,0.00,WeatherTracker,2013-07-14 09:20:00,
2013-07-14 02:26:00,48.3,41.8,29.92,SSE,166,0.0,0.0,78,0.00,,,0.00,WeatherTracker,2013-07-14 09:26:00,
2013-07-14 02:31:00,48.2,41.7,29.92,SSE,166,0.0,0.0,78,0.00,,,0.00,WeatherTracker,2013-07-14 09:31:00,
2013-07-14 02:36:00,47.9,41.4,29.92,SSE,165,0.0,2.0,78,0.00,,,0.00,WeatherTracker,2013-07-14 09:36:00,
2013-07-14 02:41:00,47.9,41.4,29.93,SSE,166,0.0,2.0,78,0.00,,,0.00,WeatherTracker,2013-07-14 09:41:00,
2013-07-14 02:46:00,47.9,40.7,29.93,SSE,166,3.0,3.0,76,0.00,,,0.00,WeatherTracker,2013-07-14 09:46:00,
2013-07-14 02:51:00,46.8,39.6,29.93,SSE,166,3.0,3.0,76,0.00,,,0.00,WeatherTracker,2013-07-14 09:51:00,
2013-07-14 02:56:00,46.3,39.8,29.93,SSE,166,2.0,4.0,78,0.00,,,0.00,WeatherTracker,2013-07-14 09:56:00,
2013-07-14 03:01:00,46.4,40.2,29.93,SSE,166,0.0,4.0,79,0.00,,,0.00,WeatherTracker,2013-07-14 10:01:00,
2013-07-14 03:06:00,47.3,40.5,29.93,SSE,166,0.0,3.0,77,0.00,,,0.00,WeatherTracker,2013-07-14 10:06:00,
2013-07-14 03:11:00,47.7,40.2,29.93,SSE,165,1.0,3.0,75,0.00,,,0.00,WeatherTracker,2013-07-14 10:11:00,
2013-07-14 03:16:00,47.0,39.8,29.93,SSE,165,1.0,4.0,76,0.00,,,0.00,WeatherTracker,2013-07-14 10:16:00,
2013-07-14 03:21:00,46.9,39.4,29.93,SSE,166,0.0,4.0,75,0.00,,,0.00,WeatherTracker,2013-07-14 10:21:00,
2013-07-14 03:26:00,46.2,39.1,29.93,SSE,166,1.0,4.0,76,0.00,,,0.00,WeatherTracker,2013-07-14 10:26:00,
2013-07-14 03:31:00,46.1,39.0,29.93,SSE,166,0.0,3.0,76,0.00,,,0.00,WeatherTracker,2013-07-14 10:31:00,
2013-07-14 03:36:00,46.1,39.6,29.93,SSE,166,0.0,3.0,78,0.00,,,0.00,WeatherTracker,2013-07-14 10:36:00,
2013-07-14 03:42:00,46.2,39.7,29.93,SSE,165,0.0,0.0,78,0.00,,,0.00,WeatherTracker,2013-07-14 10:42:00,
2013-07-14 03:47:00,46.9,39.4,29.93,SSE,165,0.0,0.0,75,0.00,,,0.00,WeatherTracker,2013-07-14 10:47:00,
2013-07-14 03:52:00,47.4,39.5,29.93,SSE,166,0.0,0.0,74,0.00,,,0.00,WeatherTracker,2013-07-14 10:52:00,
2013-07-14 03:57:00,47.3,39.1,29.93,SSE,166,0.0,0.0,73,0.00,,,0.00,WeatherTracker,2013-07-14 10:57:00,
2013-07-14 04:02:00,46.8,39.0,29.93,SSE,166,0.0,0.0,74,0.00,,,0.00,WeatherTracker,2013-07-14 11:02:00,
2013-07-14 04:07:00,46.7,39.5,29.93,SSE,166,0.0,0.0,76,0.00,,,0.00,WeatherTracker,2013-07-14 11:07:00,
2013-07-14 04:12:00,46.7,39.2,29.93,SSE,165,0.0,0.0,75,0.00,,,0.00,WeatherTracker,2013-07-14 11:12:00,
2013-07-14 04:17:00,46.5,39.0,29.93,SSE,166,0.0,0.0,75,0.00,,,0.00,WeatherTracker,2013-07-14 11:17:00,
2013-07-14 04:22:00,46.2,38.4,29.93,SSE,166,0.0,0.0,74,0.00,,,0.00,WeatherTracker,2013-07-14 11:22:00,
2013-07-14 04:27:00,46.0,38.2,29.93,SSE,166,0.0,0.0,74,0.00,,,0.00,WeatherTracker,2013-07-14 11:27:00,
2013-07-14 04:32:00,45.6,38.5,29.93,SSE,165,0.0,0.0,76,0.00,,,0.00,WeatherTracker,2013-07-14 11:32:00,
2013-07-14 04:37:00,45.1,38.3,29.93,SSE,166,0.0,0.0,77,0.00,,,0.00,WeatherTracker,2013-07-14 11:37:00,
2013-07-14 04:42:00,45.0,38.2,29.93,SSE,166,0.0,3.0,77,0.00,,,0.00,WeatherTracker,2013-07-14 11:42:00,
2013-07-14 04:47:00,45.0,38.2,29.94,SSE,166,0.0,3.0,77,0.00,,,0.00,WeatherTracker,2013-07-14 11:47:00,
2013-07-14 04:52:00,44.6,38.2,29.94,SSE,165,2.0,3.0,78,0.00,,,0.00,WeatherTracker,2013-07-14 11:52:00,
2013-07-14 04:57:00,44.6,38.2,29.94,SSE,166,0.0,3.0,78,0.00,,,0.00,WeatherTracker,2013-07-14 11:57:00,
2013-07-14 05:02:00,45.3,38.2,29.94,SSE,165,0.0,3.0,76,0.00,,,0.00,WeatherTracker,2013-07-14 12:02:00,
2013-07-14 05:07:00,45.4,38.3,29.94,SSE,166,0.0,0.0,76,0.00,,,0.00,WeatherTracker,2013-07-14 12:07:00,
2013-07-14 05:12:00,45.3,38.2,29.95,SSE,166,0.0,0.0,76,0.00,,,0.00,WeatherTracker,2013-07-14 12:12:00,
2013-07-14 05:17:00,45.5,38.4,29.95,SSE,165,0.0,0.0,76,0.00,,,0.00,WeatherTracker,2013-07-14 12:17:00,
2013-07-14 05:22:00,45.8,37.6,29.95,SSE,166,0.0,0.0,73,0.00,,,0.00,WeatherTracker,2013-07-14 12:22:00,
2013-07-14 05:27:00,45.9,37.7,29.95,SSE,165,0.0,0.0,73,0.00,,,0.00,WeatherTracker,2013-07-14 12:27:00,
2013-07-14 05:33:00,46.0,37.8,29.95,SSE,166,0.0,0.0,73,0.00,,,0.00,WeatherTracker,2013-07-14 12:33:00,
2013-07-14 05:38:00,45.4,38.9,29.95,SSE,166,0.0,3.0,78,0.00,,,0.00,WeatherTracker,2013-07-14 12:38:00,
2013-07-14 05:43:00,45.9,38.1,29.95,SSE,165,0.0,3.0,74,0.00,,,0.00,WeatherTracker,2013-07-14 12:43:00,
2013-07-14 05:48:00,46.5,38.3,29.95,SSE,166,0.0,3.0,73,0.00,,,0.00,WeatherTracker,2013-07-14 12:48:00,
2013-07-14 05:53:00,45.8,38.0,29.95,SSE,165,0.0,0.0,74,0.00,,,0.00,WeatherTracker,2013-07-14 12:53:00,
2013-07-14 05:58:00,45.5,38.0,29.96,SSE,166,0.0,3.0,75,0.00,,,0.00,WeatherTracker,2013-07-14 12:58:00,
2013-07-14 06:03:00,45.3,37.9,29.96,SSE,166,0.0,3.0,75,0.00,,,0.00,WeatherTracker,2013-07-14 13:03:00,
2013-07-14 06:08:00,45.4,37.9,29.96,SSE,166,0.0,0.0,75,0.00,,,0.00,WeatherTracker,2013-07-14 13:08:00,
2013-07-14 06:13:00,45.1,37.3,29.96,SSE,166,0.0,0.0,74,0.00,,,0.00,WeatherTracker,2013-07-14 13:13:00,
2013-07-14 06:18:00,43.6,36.9,29.96,SSE,165,0.0,3.0,77,0.00,,,0.00,WeatherTracker,2013-07-14 13:18:00,
2013-07-14 06:23:00,43.3,37.2,29.96,SSE,166,2.0,4.0,79,0.00,,,0.00,WeatherTracker,2013-07-14 13:23:00,
2013-07-14 06:28:00,42.8,37.1,29.96,SSE,166,0.0,4.0,80,0.00,,,0.00,WeatherTracker,2013-07-14 13:28:00,
2013-07-14 06:33:00,43.1,37.7,29.96,SSE,166,1.0,4.0,81,0.00,,,0.00,WeatherTracker,2013-07-14 13:33:00,
2013-07-14 06:38:00,43.4,38.0,29.96,SSE,166,0.0,3.0,81,0.00,,,0.00,WeatherTracker,2013-07-14 13:38:00,
2013-07-14 06:43:00,44.2,38.7,29.96,SSE,166,0.0,3.0,81,0.00,,,0.00,WeatherTracker,2013-07-14 13:43:00,
2013-07-14 06:48:00,45.4,39.3,29.97,SSE,165,0.0,2.0,79,0.00,,,0.00,WeatherTracker,2013-07-14 13:48:00,
2013-07-14 06:53:00,46.8,40.3,29.96,SSE,166,0.0,0.0,78,0.00,,,0.00,WeatherTracker,2013-07-14 13:53:00,
2013-07-14 06:58:00,48.1,40.6,29.96,SSE,166,0.0,0.0,75,0.00,,,0.00,WeatherTracker,2013-07-14 13:58:00,
2013-07-14 07:03:00,48.7,40.1,29.96,SSE,165,0.0,0.0,72,0.00,,,0.00,WeatherTracker,2013-07-14 14:03:00,
2013-07-14 07:09:00,49.3,39.2,29.96,SSE,166,0.0,0.0,68,0.00,,,0.00,WeatherTracker,2013-07-14 14:09:00,
2013-07-14 07:14:00,50.6,40.4,29.96,SSE,166,0.0,0.0,68,0.00,,,0.00,WeatherTracker,2013-07-14 14:14:00,
2013-07-14 07:19:00,52.6,41.2,29.96,SSE,165,0.0,0.0,65,0.00,,,0.00,WeatherTracker,2013-07-14 14:19:00,
2013-07-14 07:24:00,54.8,42.4,29.96,SSE,165,0.0,0.0,63,0.00,,,0.00,WeatherTracker,2013-07-14 14:24:00,
2013-07-14 07:29:00,56.1,42.4,29.96,SSE,166,0.0,0.0,60,0.00,,,0.00,WeatherTracker,2013-07-14 14:29:00,
2013-07-14 07:34:00,57.8,43.1,29.96,SSE,166,0.0,0.0,58,0.00,,,0.00,WeatherTracker,2013-07-14 14:34:00,
2013-07-14 07:39:00,58.8,43.6,29.96,SSE,166,0.0,0.0,57,0.00,,,0.00,WeatherTracker,2013-07-14 14:39:00,
2013-07-14 07:44:00,59.6,42.9,29.96,SSE,166,0.0,0.0,54,0.00,,,0.00,WeatherTracker,2013-07-14 14:44:00,
2013-07-14 07:49:00,60.4,42.2,29.96,SSE,165,0.0,1.0,51,0.00,,,0.00,WeatherTracker,2013-07-14 14:49:00,
2013-07-14 07:54:00,60.7,41.9,29.96,SSE,166,0.0,1.0,50,0.00,,,0.00,WeatherTracker,2013-07-14 14:54:00,
2013-07-14 07:59:00,60.8,43.6,29.96,South,174,0.0,0.0,53,0.00,,,0.00,WeatherTracker,2013-07-14 14:59:00,
2013-07-14 08:04:00,61.1,42.8,29.96,West,266,0.0,3.0,51,0.00,,,0.00,WeatherTracker,2013-07-14 15:04:00,
2013-07-14 08:09:00,61.1,42.8,29.96,NW,325,3.0,4.0,51,0.00,,,0.00,WeatherTracker,2013-07-14 15:09:00,
2013-07-14 08:14:00,61.0,43.7,29.96,NW,325,3.0,5.0,53,0.00,,,0.00,WeatherTracker,2013-07-14 15:14:00,
2013-07-14 08:19:00,61.0,45.2,29.96,NW,325,2.0,5.0,56,0.00,,,0.00,WeatherTracker,2013-07-14 15:19:00,
2013-07-14 08:24:00,61.4,45.6,29.96,NW,324,1.0,4.0,56,0.00,,,0.00,WeatherTracker,2013-07-14 15:24:00,
2013-07-14 08:29:00,61.8,44.5,29.96,NW,315,2.0,3.0,53,0.00,,,0.00,WeatherTracker,2013-07-14 15:29:00,
2013-07-14 08:34:00,62.2,44.9,29.96,NW,316,2.0,4.0,53,0.00,,,0.00,WeatherTracker,2013-07-14 15:34:00,
2013-07-14 08:39:00,62.9,45.0,29.96,NW,317,3.0,4.0,52,0.00,,,0.00,WeatherTracker,2013-07-14 15:39:00,
2013-07-14 08:44:00,63.6,45.6,29.96,NW,318,0.0,4.0,52,0.00,,,0.00,WeatherTracker,2013-07-14 15:44:00,
2013-07-14 08:49:00,64.6,44.5,29.95,NW,318,1.0,4.0,48,0.00,,,0.00,WeatherTracker,2013-07-14 15:49:00,
2013-07-14 08:54:00,65.6,44.3,29.95,NW,318,0.0,3.0,46,0.00,,,0.00,WeatherTracker,2013-07-14 15:54:00,
2013-07-14 08:59:00,66.3,43.7,29.95,NW,318,2.0,3.0,44,0.00,,,0.00,WeatherTracker,2013-07-14 15:59:00,
2013-07-14 09:04:00,67.1,43.8,29.95,NW,318,0.0,3.0,43,0.00,,,0.00,WeatherTracker,2013-07-14 16:04:00,
2013-07-14 09:10:00,68.2,44.8,29.95,NW,318,0.0,3.0,43,0.00,,,0.00,WeatherTracker,2013-07-14 16:10:00,
2013-07-14 09:15:00,69.3,45.2,29.95,NW,318,0.0,3.0,42,0.00,,,0.00,WeatherTracker,2013-07-14 16:15:00,
2013-07-14 09:20:00,70.0,44.6,29.94,NW,318,1.0,2.0,40,0.00,,,0.00,WeatherTracker,2013-07-14 16:20:00,
2013-07-14 09:25:00,70.5,45.7,29.94,NW,318,0.0,3.0,41,0.00,,,0.00,WeatherTracker,2013-07-14 16:25:00,
2013-07-14 09:30:00,70.9,46.0,29.94,NW,318,0.0,3.0,41,0.00,,,0.00,WeatherTracker,2013-07-14 16:30:00,
2013-07-14 09:35:00,71.6,45.3,29.93,NW,318,0.0,1.0,39,0.00,,,0.00,WeatherTracker,2013-07-14 16:35:00,
2013-07-14 09:40:00,72.0,47.0,29.93,NW,318,0.0,2.0,41,0.00,,,0.00,WeatherTracker,2013-07-14 16:40:00,
2013-07-14 09:45:00,72.8,44.3,29.93,NW,323,0.0,2.0,36,0.00,,,0.00,WeatherTracker,2013-07-14 16:45:00,
2013-07-14 09:50:00,73.6,45.0,29.93,NW,323,0.0,2.0,36,0.00,,,0.00,WeatherTracker,2013-07-14 16:50:00,
2013-07-14 09:55:00,74.9,45.4,29.92,NW,325,0.0,2.0,35,0.00,,,0.00,WeatherTracker,2013-07-14 16:55:00,
2013-07-14 10:00:00,76.1,47.2,29.92,NW,325,0.0,2.0,36,0.00,,,0.00,WeatherTracker,2013-07-14 17:00:00,
2013-07-14 10:05:00,76.5,48.3,29.92,North,6,0.0,3.0,37,0.00,,,0.00,WeatherTracker,2013-07-14 17:05:00,
2013-07-14 10:10:00,76.9,45.6,29.92,NNE,13,0.0,3.0,33,0.00,,,0.00,WeatherTracker,2013-07-14 17:10:00,
2013-07-14 10:15:00,77.3,47.5,29.92,NNE,19,1.0,3.0,35,0.00,,,0.00,WeatherTracker,2013-07-14 17:15:00,
2013-07-14 10:20:00,77.8,47.2,29.91,NNE,19,2.0,3.0,34,0.00,,,0.00,WeatherTracker,2013-07-14 17:20:00,
2013-07-14 10:25:00,78.4,45.2,29.91,NNE,23,0.0,3.0,31,0.00,,,0.00,WeatherTracker,2013-07-14 17:25:00,
2013-07-14 10:30:00,78.4,43.5,29.92,NNW,327,1.0,4.0,29,0.00,,,0.00,WeatherTracker,2013-07-14 17:30:00,
2013-07-14 10:35:00,78.0,44.0,29.91,North,10,0.0,4.0,30,0.00,,,0.00,WeatherTracker,2013-07-14 17:35:00,
2013-07-14 10:40:00,78.4,45.2,29.91,NE,40,0.0,4.0,31,0.00,,,0.00,WeatherTracker,2013-07-14 17:40:00,
2013-07-14 10:45:00,79.0,43.1,29.91,NE,39,0.0,3.0,28,0.00,,,0.00,WeatherTracker,2013-07-14 17:45:00,
2013-07-14 10:50:00,79.6,48.7,29.91,East,79,0.0,3.0,34,0.00,,,0.00,WeatherTracker,2013-07-14 17:50:00,
2013-07-14 10:55:00,79.8,45.6,29.91,NNW,340,1.0,5.0,30,0.00,,,0.00,WeatherTracker,2013-07-14 17:55:00,
2013-07-14 11:00:00,79.2,45.9,29.91,NNW,345,1.0,5.0,31,0.00,,,0.00,WeatherTracker,2013-07-14 18:00:00,
2013-07-14 11:05:00,78.8,45.6,29.90,NW,319,6.0,6.0,31,0.00,,,0.00,WeatherTracker,2013-07-14 18:05:00,
2013-07-14 11:10:00,78.9,44.8,29.90,NW,314,3.0,7.0,30,0.00,,,0.00,WeatherTracker,2013-07-14 18:10:00,
2013-07-14 11:15:00,79.4,43.4,29.90,NNW,337,1.0,7.0,28,0.00,,,0.00,WeatherTracker,2013-07-14 18:15:00,
2013-07-14 11:21:00,79.4,43.4,29.90,North,353,1.0,6.0,28,0.00,,,0.00,WeatherTracker,2013-07-14 18:21:00,
2013-07-14 11:26:00,79.9,43.9,29.90,North,355,3.0,6.0,28,0.00,,,0.00,WeatherTracker,2013-07-14 18:26:00,
2013-07-14 11:31:00,80.3,45.1,29.90,NNW,341,1.0,6.0,29,0.00,,,0.00,WeatherTracker,2013-07-14 18:31:00,
2013-07-14 11:36:00,80.9,44.7,29.90,North,2,3.0,6.0,28,0.00,,,0.00,WeatherTracker,2013-07-14 18:36:00,
2013-07-14 11:41:00,81.4,43.2,29.89,North,352,0.0,6.0,26,0.00,,,0.00,WeatherTracker,2013-07-14 18:41:00,
2013-07-14 11:46:00,82.0,44.7,29.89,North,1,1.0,6.0,27,0.00,,,0.00,WeatherTracker,2013-07-14 18:46:00,
2013-07-14 11:51:00,82.4,44.0,29.89,North,4,2.0,6.0,26,0.00,,,0.00,WeatherTracker,2013-07-14 18:51:00,
2013-07-14 11:56:00,82.0,42.7,29.89,NW,325,6.0,9.0,25,0.00,,,0.00,WeatherTracker,2013-07-14 18:56:00,
2013-07-14 12:01:00,81.6,42.3,29.89,WNW,292,1.0,10.0,25,0.00,,,0.00,WeatherTracker,2013-07-14 19:01:00,
2013-07-14 12:06:00,82.0,42.7,29.89,North,3,3.0,10.0,25,0.00,,,0.00,WeatherTracker,2013-07-14 19:06:00,
2013-07-14 12:11:00,82.6,42.1,29.88,NNE,15,3.0,7.0,24,0.00,,,0.00,WeatherTracker,2013-07-14 19:11:00,
2013-07-14 12:16:00,82.9,43.4,29.88,NNW,329,4.0,7.0,25,0.00,,,0.00,WeatherTracker,2013-07-14 19:16:00,
2013-07-14 12:21:00,83.5,43.9,29.88,North,360,1.0,7.0,25,0.00,,,0.00,WeatherTracker,2013-07-14 19:21:00,
2013-07-14 12:26:00,83.6,40.7,29.88,NNW,343,4.0,7.0,22,0.00,,,0.00,WeatherTracker,2013-07-14 19:26:00,
2013-07-14 12:31:00,84.1,44.5,29.87,North,6,4.0,6.0,25,0.00,,,0.00,WeatherTracker,2013-07-14 19:31:00,
2013-07-14 12:36:00,84.8,44.0,29.87,NNW,327,3.0,6.0,24,0.00,,,0.00,WeatherTracker,2013-07-14 19:36:00,
2013-07-14 12:41:00,85.0,43.0,29.87,NW,323,4.0,6.0,23,0.00,,,0.00,WeatherTracker,2013-07-14 19:41:00,
2013-07-14 12:46:00,85.2,46.4,29.86,NW,307,0.0,7.0,26,0.00,,,0.00,WeatherTracker,2013-07-14 19:46:00,
2013-07-14 12:51:00,85.4,43.4,29.86,West,271,2.0,7.0,23,0.00,,,0.00,WeatherTracker,2013-07-14 19:51:00,
2013-07-14 12:57:00,85.6,45.7,29.86,NNW,347,4.0,6.0,25,0.00,,,0.00,WeatherTracker,2013-07-14 19:57:00,
2013-07-14 13:02:00,86.2,47.3,29.85,NNW,341,3.0,6.0,26,0.00,,,0.00,WeatherTracker,2013-07-14 20:02:00,
2013-07-14 13:07:00,87.1,43.6,29.85,NNW,339,3.0,6.0,22,0.00,,,0.00,WeatherTracker,2013-07-14 20:07:00,
2013-07-14 13:12:00,87.5,45.1,29.85,NNE,32,5.0,5.0,23,0.00,,,0.00,WeatherTracker,2013-07-14 20:12:00,
2013-07-14 13:17:00,87.4,43.9,29.85,NE,40,0.0,5.0,22,0.00,,,0.00,WeatherTracker,2013-07-14 20:17:00,
2013-07-14 13:22:00,87.1,43.6,29.85,NNW,345,4.0,8.0,22,0.00,,,0.00,WeatherTracker,2013-07-14 20:22:00,
2013-07-14 13:27:00,86.8,45.6,29.84,North,351,5.0,8.0,24,0.00,,,0.00,WeatherTracker,2013-07-14 20:27:00,
2013-07-14 13:32:00,86.7,45.6,29.84,NNE,31,3.0,6.0,24,0.00,,,0.00,WeatherTracker,2013-07-14 20:32:00,
2013-07-14 13:37:00,87.9,45.4,29.84,NNE,15,1.0,5.0,23,0.00,,,0.00,WeatherTracker,2013-07-14 20:37:00,
2013-07-14 13:42:00,88.9,43.9,29.84,NE,37,4.0,5.0,21,0.00,,,0.00,WeatherTracker,2013-07-14 20:42:00,
2013-07-14 13:47:00,89.0,42.7,29.84,NE,56,3.0,5.0,20,0.00,,,0.00,WeatherTracker,2013-07-14 20:47:00,
2013-07-14 13:52:00,89.1,44.0,29.84,NE,50,2.0,5.0,21,0.00,,,0.00,WeatherTracker,2013-07-14 20:52:00,
2013-07-14 13:57:00,89.4,44.3,29.83,ESE,114,5.0,5.0,21,0.00,,,0.00,WeatherTracker,2013-07-14 20:57:00,
2013-07-14 14:02:00,89.6,46.9,29.83,NNE,27,4.0,7.0,23,0.00,,,0.00,WeatherTracker,2013-07-14 21:02:00,
2013-07-14 14:07:00,90.1,46.1,29.83,NNE,21,1.0,7.0,22,0.00,,,0.00,WeatherTracker,2013-07-14 21:07:00,
2013-07-14 14:12:00,90.2,47.4,29.83,NE,40,2.0,7.0,23,0.00,,,0.00,WeatherTracker,2013-07-14 21:12:00,
2013-07-14 14:17:00,90.0,47.2,29.82,North,2,2.0,9.0,23,0.00,,,0.00,WeatherTracker,2013-07-14 21:17:00,
2013-07-14 14:22:00,89.5,45.6,29.82,NNE,21,2.0,9.0,22,0.00,,,0.00,WeatherTracker,2013-07-14 21:22:00,
2013-07-14 14:27:00,88.7,46.1,29.82,North,354,4.0,6.0,23,0.00,,,0.00,WeatherTracker,2013-07-14 21:27:00,
2013-07-14 14:32:00,88.0,45.5,29.82,NW,319,4.0,7.0,23,0.00,,,0.00,WeatherTracker,2013-07-14 21:32:00,
2013-07-14 14:37:00,87.6,45.2,29.81,NNE,13,3.0,8.0,23,0.00,,,0.00,WeatherTracker,2013-07-14 21:37:00,
2013-07-14 14:42:00,87.7,45.3,29.81,North,4,3.0,8.0,23,0.00,,,0.00,WeatherTracker,2013-07-14 21:42:00,
2013-07-14 14:47:00,87.1,44.8,29.80,North,352,3.0,6.0,23,0.00,,,0.00,WeatherTracker,2013-07-14 21:47:00,
2013-07-14 14:52:00,86.4,46.4,29.80,NNW,345,3.0,6.0,25,0.00,,,0.00,WeatherTracker,2013-07-14 21:52:00,
2013-07-14 14:57:00,86.4,46.4,29.80,NW,321,1.0,9.0,25,0.00,,,0.00,WeatherTracker,2013-07-14 21:57:00,
2013-07-14 15:03:00,87.0,45.8,29.80,North,7,3.0,9.0,24,0.00,,,0.00,WeatherTracker,2013-07-14 22:03:00,
2013-07-14 15:08:00,87.1,42.4,29.80,NNW,333,5.0,6.0,21,0.00,,,0.00,WeatherTracker,2013-07-14 22:08:00,
2013-07-14 15:13:00,86.9,46.8,29.80,NNW,345,0.0,9.0,25,0.00,,,0.00,WeatherTracker,2013-07-14 22:13:00,
2013-07-14 15:18:00,87.4,45.0,29.80,NNW,331,4.0,9.0,23,0.00,,,0.00,WeatherTracker,2013-07-14 22:18:00,
2013-07-14 15:23:00,87.9,45.4,29.79,NNE,19,5.0,9.0,23,0.00,,,0.00,WeatherTracker,2013-07-14 22:23:00,
2013-07-14 15:28:00,88.6,46.0,29.79,North,352,5.0,9.0,23,0.00,,,0.00,WeatherTracker,2013-07-14 22:28:00,
2013-07-14 15:33:00,88.4,44.7,29.79,North,352,4.0,7.0,22,0.00,,,0.00,WeatherTracker,2013-07-14 22:33:00,
2013-07-14 15:38:00,88.5,43.5,29.79,North,350,3.0,8.0,21,0.00,,,0.00,WeatherTracker,2013-07-14 22:38:00,
2013-07-14 15:43:00,88.8,45.0,29.79,North,2,3.0,10.0,22,0.00,,,0.00,WeatherTracker,2013-07-14 22:43:00,
2013-07-14 15:48:00,88.7,46.1,29.79,WNW,285,12.0,12.0,23,0.00,,,0.00,WeatherTracker,2013-07-14 22:48:00,
2013-07-14 15:53:00,87.4,46.1,29.79,WNW,287,9.0,16.0,24,0.00,,,0.00,WeatherTracker,2013-07-14 22:53:00,
2013-07-14 15:58:00,86.5,45.4,29.79,WNW,296,9.0,16.0,24,0.00,,,0.00,WeatherTracker,2013-07-14 22:58:00,
2013-07-14 16:03:00,86.9,43.4,29.79,WNW,292,7.0,15.0,22,0.00,,,0.00,WeatherTracker,2013-07-14 23:03:00,
2013-07-14 16:08:00,87.3,46.1,29.78,North,349,16.0,19.0,24,0.00,,,0.00,WeatherTracker,2013-07-14 23:08:00,
2013-07-14 16:13:00,87.2,46.0,29.78,NNW,333,15.0,19.0,24,0.00,,,0.00,WeatherTracker,2013-07-14 23:13:00,
2013-07-14 16:18:00,87.2,47.1,29.78,NNW,333,12.0,19.0,25,0.00,,,0.00,WeatherTracker,2013-07-14 23:18:00,
2013-07-14 16:23:00,86.8,46.7,29.78,WNW,293,21.0,24.0,25,0.00,,,0.00,WeatherTracker,2013-07-14 23:23:00,
2013-07-14 16:28:00,86.7,47.7,29.78,NW,312,14.0,24.0,26,0.00,,,0.00,WeatherTracker,2013-07-14 23:28:00,
2013-07-14 16:33:00,86.4,47.4,29.78,NNW,331,15.0,24.0,26,0.00,,,0.00,WeatherTracker,2013-07-14 23:33:00,
2013-07-14 16:38:00,86.1,48.2,29.78,WNW,296,19.0,23.0,27,0.00,,,0.00,WeatherTracker,2013-07-14 23:38:00,
2013-07-14 16:43:00,86.0,47.1,29.78,NNW,334,20.0,26.0,26,0.00,,,0.00,WeatherTracker,2013-07-14 23:43:00,
2013-07-14 16:48:00,85.7,45.8,29.78,NNW,337,20.0,26.0,25,0.00,,,0.00,WeatherTracker,2013-07-14 23:48:00,
2013-07-14 16:53:00,85.9,47.0,29.77,NW,315,15.0,24.0,26,0.00,,,0.00,WeatherTracker,2013-07-14 23:53:00,
2013-07-14 16:58:00,85.8,46.9,29.77,West,281,9.0,24.0,26,0.00,,,0.00,WeatherTracker,2013-07-14 23:58:00,
2013-07-14 17:03:00,85.9,47.0,29.77,WNW,296,5.0,25.0,26,0.00,,,0.00,WeatherTracker,2013-07-15 00:03:00,
2013-07-14 17:09:00,86.3,47.3,29.77,NW,316,11.0,25.0,26,0.00,,,0.00,WeatherTracker,2013-07-15 00:09:00,
2013-07-14 17:14:00,85.4,45.5,29.77,West,279,12.0,22.0,25,0.00,,,0.00,WeatherTracker,2013-07-15 00:14:00,
2013-07-14 17:19:00,84.9,46.2,29.77,WNW,301,15.0,22.0,26,0.00,,,0.00,WeatherTracker,2013-07-15 00:19:00,
2013-07-14 17:24:00,84.9,47.2,29.77,West,273,11.0,23.0,27,0.00,,,0.00,WeatherTracker,2013-07-15 00:24:00,
2013-07-14 17:29:00,84.9,46.2,29.77,WNW,288,12.0,23.0,26,0.00,,,0.00,WeatherTracker,2013-07-15 00:29:00,
2013-07-14 17:34:00,84.6,46.9,29.77,West,279,19.0,20.0,27,0.00,,,0.00,WeatherTracker,2013-07-15 00:34:00,
2013-07-14 17:39:00,84.8,46.1,29.77,West,266,9.0,22.0,26,0.00,,,0.00,WeatherTracker,2013-07-15 00:39:00,
2013-07-14 17:44:00,84.5,46.8,29.77,WNW,294,14.0,22.0,27,0.00,,,0.00,WeatherTracker,2013-07-15 00:44:00,
2013-07-14 17:49:00,84.3,45.7,29.77,WNW,298,12.0,22.0,26,0.00,,,0.00,WeatherTracker,2013-07-15 00:49:00,
2013-07-14 17:54:00,84.3,46.6,29.77,SW,233,2.0,21.0,27,0.00,,,0.00,WeatherTracker,2013-07-15 00:54:00,
2013-07-14 17:59:00,84.4,45.7,29.77,NW,318,10.0,21.0,26,0.00,,,0.00,WeatherTracker,2013-07-15 00:59:00,
2013-07-14 18:04:00,84.3,45.7,29.77,WNW,298,11.0,19.0,26,0.00,,,0.00,WeatherTracker,2013-07-15 01:04:00,
2013-07-14 18:09:00,84.1,46.5,29.77,WNW,298,13.0,16.0,27,0.00,,,0.00,WeatherTracker,2013-07-15 01:09:00,
2013-07-14 18:14:00,83.9,45.3,29.77,West,268,10.0,18.0,26,0.00,,,0.00,WeatherTracker,2013-07-15 01:14:00,
2013-07-14 18:19:00,83.6,46.1,29.77,WNW,290,11.0,18.0,27,0.00,,,0.00,WeatherTracker,2013-07-15 01:19:00,
2013-07-14 18:24:00,83.8,45.2,29.77,WNW,288,6.0,20.0,26,0.00,,,0.00,WeatherTracker,2013-07-15 01:24:00,
2013-07-14 18:29:00,83.6,47.0,29.77,WNW,284,9.0,20.0,28,0.00,,,0.00,WeatherTracker,2013-07-15 01:29:00,
2013-07-14 18:34:00,83.3,45.8,29.77,WNW,287,6.0,13.0,27,0.00,,,0.00,WeatherTracker,2013-07-15 01:34:00,
2013-07-14 18:39:00,82.9,45.5,29.77,West,280,6.0,13.0,27,0.00,,,0.00,WeatherTracker,2013-07-15 01:39:00,
2013-07-14 18:44:00,82.7,45.3,29.77,NW,304,12.0,17.0,27,0.00,,,0.00,WeatherTracker,2013-07-15 01:44:00,
2013-07-14 18:49:00,82.5,46.1,29.77,West,260,5.0,17.0,28,0.00,,,0.00,WeatherTracker,2013-07-15 01:49:00,
2013-07-14 18:54:00,82.2,45.8,29.77,West,279,3.0,16.0,28,0.00,,,0.00,WeatherTracker,2013-07-15 01:54:00,
2013-07-14 18:59:00,82.1,44.8,29.77,West,281,6.0,15.0,27,0.00,,,0.00,WeatherTracker,2013-07-15 01:59:00,
2013-07-14 19:04:00,81.9,45.6,29.77,NW,313,9.0,17.0,28,0.00,,,0.00,WeatherTracker,2013-07-15 02:04:00,
2013-07-14 19:09:00,81.6,44.4,29.77,WNW,282,6.0,17.0,27,0.00,,,0.00,WeatherTracker,2013-07-15 02:09:00,
2013-07-14 19:15:00,81.7,44.4,29.77,West,275,6.0,14.0,27,0.00,,,0.00,WeatherTracker,2013-07-15 02:15:00,
2013-07-14 19:20:00,81.5,45.2,29.77,WSW,254,2.0,12.0,28,0.00,,,0.00,WeatherTracker,2013-07-15 02:20:00,
2013-07-14 19:25:00,81.3,45.1,29.78,WNW,289,6.0,10.0,28,0.00,,,0.00,WeatherTracker,2013-07-15 02:25:00,
2013-07-14 19:30:00,80.2,44.1,29.78,West,279,3.0,10.0,28,0.00,,,0.00,WeatherTracker,2013-07-15 02:30:00,
2013-07-14 19:35:00,79.8,44.7,29.78,West,275,1.0,9.0,29,0.00,,,0.00,WeatherTracker,2013-07-15 02:35:00,
2013-07-14 19:40:00,79.1,45.0,29.78,SSW,212,2.0,10.0,30,0.00,,,0.00,WeatherTracker,2013-07-15 02:40:00,
2013-07-14 19:45:00,78.9,43.9,29.78,WSW,256,1.0,13.0,29,0.00,,,0.00,WeatherTracker,2013-07-15 02:45:00,
2013-07-14 19:50:00,78.7,43.7,29.78,SW,219,2.0,13.0,29,0.00,,,0.00,WeatherTracker,2013-07-15 02:50:00,
2013-07-14 19:55:00,78.7,42.8,29.78,SSW,203,9.0,9.0,28,0.00,,,0.00,WeatherTracker,2013-07-15 02:55:00,
2013-07-14 20:00:00,78.7,43.7,29.78,SW,225,1.0,11.0,29,0.00,,,0.00,WeatherTracker,2013-07-15 03:00:00,
2013-07-14 20:05:00,78.9,43.0,29.78,South,185,5.0,11.0,28,0.00,,,0.00,WeatherTracker,2013-07-15 03:05:00,
2013-07-14 20:10:00,78.2,42.4,29.78,SSW,194,3.0,7.0,28,0.00,,,0.00,WeatherTracker,2013-07-15 03:10:00,
2013-07-14 20:15:00,78.0,42.2,29.78,SW,230,2.0,6.0,28,0.00,,,0.00,WeatherTracker,2013-07-15 03:15:00,
2013-07-14 20:20:00,77.5,42.7,29.78,SW,229,0.0,6.0,29,0.00,,,0.00,WeatherTracker,2013-07-15 03:20:00,
2013-07-14 20:25:00,77.5,41.8,29.79,SSW,211,0.0,3.0,28,0.00,,,0.00,WeatherTracker,2013-07-15 03:25:00,
2013-07-14 20:30:00,76.4,44.3,29.79,SSW,194,0.0,3.0,32,0.00,,,0.00,WeatherTracker,2013-07-15 03:30:00,
2013-07-14 20:35:00,74.4,44.9,29.79,SSW,195,0.0,3.0,35,0.00,,,0.00,WeatherTracker,2013-07-15 03:35:00,
2013-07-14 20:40:00,73.1,44.5,29.79,SSW,195,0.0,2.0,36,0.00,,,0.00,WeatherTracker,2013-07-15 03:40:00,
2013-07-14 20:45:00,72.3,43.1,29.78,SSW,195,0.0,0.0,35,0.00,,,0.00,WeatherTracker,2013-07-15 03:45:00,
2013-07-14 20:50:00,71.0,46.7,29.79,SSW,195,0.0,4.0,42,0.00,,,0.00,WeatherTracker,2013-07-15 03:50:00,
2013-07-14 20:56:00,68.6,46.4,29.79,SSW,195,0.0,4.0,45,0.00,,,0.00,WeatherTracker,2013-07-15 03:56:00,
2013-07-14 21:01:00,67.9,46.3,29.79,SSW,204,2.0,3.0,46,0.00,,,0.00,WeatherTracker,2013-07-15 04:01:00,
2013-07-14 21:02:00,67.6,45.5,29.79,WSW,252,3.0,3.0,45,0.00,,,0.00,WeatherTracker,2013-07-15 04:02:00,
2013-07-14 21:07:00,67.4,44.1,29.79,West,266,0.0,4.0,43,0.00,,,0.00,WeatherTracker,2013-07-15 04:07:00,
2013-07-14 21:12:00,67.6,44.9,29.79,NNW,333,0.0,4.0,44,0.00,,,0.00,WeatherTracker,2013-07-15 04:12:00,
2013-07-14 21:17:00,67.3,44.6,29.79,NNW,333,0.0,3.0,44,0.00,,,0.00,WeatherTracker,2013-07-15 04:17:00,
2013-07-14 21:22:00,67.1,44.5,29.80,NNE,23,1.0,1.0,44,0.00,,,0.00,WeatherTracker,2013-07-15 04:22:00,
2013-07-14 21:27:00,67.5,44.8,29.80,NNE,25,2.0,5.0,44,0.00,,,0.00,WeatherTracker,2013-07-15 04:27:00,
2013-07-14 21:32:00,67.6,44.9,29.80,NNE,25,0.0,5.0,44,0.00,,,0.00,WeatherTracker,2013-07-15 04:32:00,
2013-07-14 21:37:00,67.9,44.6,29.80,NNE,25,0.0,4.0,43,0.00,,,0.00,WeatherTracker,2013-07-15 04:37:00,
2013-07-14 21:42:00,68.2,44.2,29.80,NNE,18,1.0,4.0,42,0.00,,,0.00,WeatherTracker,2013-07-15 04:42:00,
2013-07-14 21:47:00,68.2,44.8,29.80,NNE,18,0.0,4.0,43,0.00,,,0.00,WeatherTracker,2013-07-15 04:47:00,
2013-07-14 21:52:00,67.2,45.1,29.81,NNE,18,2.0,4.0,45,0.00,,,0.00,WeatherTracker,2013-07-15 04:52:00,
2013-07-14 21:57:00,67.0,43.8,29.81,North,356,0.0,4.0,43,0.00,,,0.00,WeatherTracker,2013-07-15 04:57:00,
2013-07-14 22:02:00,67.7,43.8,29.81,North,356,0.0,4.0,42,0.00,,,0.00,WeatherTracker,2013-07-15 05:02:00,
2013-07-14 22:07:00,68.0,44.0,29.81,North,356,0.0,3.0,42,0.00,,,0.00,WeatherTracker,2013-07-15 05:07:00,
2013-07-14 22:12:00,67.9,43.3,29.81,North,356,0.0,2.0,41,0.00,,,0.00,WeatherTracker,2013-07-15 05:12:00,
2013-07-14 22:17:00,67.7,44.4,29.81,North,356,0.0,0.0,43,0.00,,,0.00,WeatherTracker,2013-07-15 05:17:00,
2013-07-14 22:22:00,67.4,43.5,29.81,North,356,0.0,2.0,42,0.00,,,0.00,WeatherTracker,2013-07-15 05:22:00,
2013-07-14 22:27:00,67.2,42.7,29.81,North,356,0.0,3.0,41,0.00,,,0.00,WeatherTracker,2013-07-15 05:27:00,
2013-07-14 22:33:00,67.1,42.6,29.81,North,356,0.0,3.0,41,0.00,,,0.00,WeatherTracker,2013-07-15 05:33:00,
2013-07-14 22:38:00,67.6,43.1,29.81,North,356,0.0,2.0,41,0.00,,,0.00,WeatherTracker,2013-07-15 05:38:00,
2013-07-14 22:43:00,66.8,43.0,29.81,North,356,0.0,2.0,42,0.00,,,0.00,WeatherTracker,2013-07-15 05:43:00,
2013-07-14 22:48:00,65.9,42.8,29.81,North,356,0.0,3.0,43,0.00,,,0.00,WeatherTracker,2013-07-15 05:48:00,
2013-07-14 22:53:00,64.6,43.3,29.81,NE,36,0.0,3.0,46,0.00,,,0.00,WeatherTracker,2013-07-15 05:53:00,
2013-07-14 22:58:00,62.3,44.9,29.81,South,173,4.0,4.0,53,0.00,,,0.00,WeatherTracker,2013-07-15 05:58:00,
2013-07-14 23:03:00,59.2,44.4,29.81,South,173,0.0,5.0,58,0.00,,,0.00,WeatherTracker,2013-07-15 06:03:00,
2013-07-14 23:08:00,59.0,44.2,29.81,South,173,0.0,5.0,58,0.00,,,0.00,WeatherTracker,2013-07-15 06:08:00,
2013-07-14 23:13:00,59.0,43.8,29.81,South,172,0.0,3.0,57,0.00,,,0.00,WeatherTracker,2013-07-15 06:13:00,
2013-07-14 23:18:00,59.0,45.1,29.81,South,173,3.0,3.0,60,0.00,,,0.00,WeatherTracker,2013-07-15 06:18:00,
2013-07-14 23:23:00,58.7,44.0,29.81,South,172,0.0,3.0,58,0.00,,,0.00,WeatherTracker,2013-07-15 06:23:00,
2013-07-14 23:28:00,59.1,43.9,29.81,South,172,2.0,3.0,57,0.00,,,0.00,WeatherTracker,2013-07-15 06:28:00,
2013-07-14 23:33:00,58.8,44.5,29.82,South,175,3.0,3.0,59,0.00,,,0.00,WeatherTracker,2013-07-15 06:33:00,
2013-07-14 23:38:00,58.6,44.3,29.82,South,175,0.0,3.0,59,0.00,,,0.00,WeatherTracker,2013-07-15 06:38:00,
2013-07-14 23:43:00,58.4,42.8,29.82,NW,309,0.0,3.0,56,0.00,,,0.00,WeatherTracker,2013-07-15 06:43:00,
2013-07-14 23:48:00,58.4,43.2,29.82,NW,309,0.0,4.0,57,0.00,,,0.00,WeatherTracker,2013-07-15 06:48:00,
2013-07-14 23:53:00,58.6,43.0,29.82,NW,309,0.0,4.0,56,0.00,,,0.00,WeatherTracker,2013-07-15 06:53:00,
2013-07-14 23:58:00,58.6,43.0,29.82,NW,309,0.0,3.0,56,0.00,,,0.00,WeatherTracker,2013-07-15 06:58:00,